Weather at Thornhill Airfield

Public forecast

Using degrees Celsius for public forecast. Weather courtesy of forecast.io.

Closest aviation weather report (METAR) to Thornhill Airfield

Closest report is Glasgow International Airport, 18.6 nm (34.4 km) SSW.

2024/05/28 00:50 (retrieved 18 minutes ago)

EGPF 280050Z AUTO 08004KT 9999 NCD 09/06 Q1010

Closest aviation forecast (TAF) to Thornhill Airfield

Forecast is more than 6 hours old.

Closest forecast is RAF Lakenheath, 279.3 nm (517.3 km) SE.

2024/05/27 18:37 Ammendment (retrieved 7 hours ago)

TAF AMD EGUL 271815Z 2718/2822 23010KT 9999 FEW035 BKN060 QNH2991INS TEMPO 2718/2721 9000 -SHRA BECMG 2722/2723 VRB06KT 9999 FEW030 QNH2990INS BECMG 2804/2806 20010KT 9999 FEW007 BKN015 QNH2986INS TEMPO 2806/2809 6000 -SHRA BR BKN007 BECMG 2808/2809 20010G20KT 8000 -SHRA FEW008 BKN018 QNH2972INS TEMPO 2812/2815 6000 -SHRA BKN008 BECMG 2818/2819 24010G18KT 9999 NSW FEW015 BKN020 QNH2973INS TX16/2718Z TN09/2804Z LAST NO AMDS AFT 2718 NEXT 2805